sensor_id;sensor_type;location;lat;lon;timestamp;P1;durP1;ratioP1;P2;durP2;ratioP2
2934;SDS011;2462;51.456;7.248;2023-07-08T00:00:46;2.67;;;2.00;;
2934;SDS011;2462;51.456;7.248;2023-07-08T00:03:15;2.90;;;2.37;;
2934;SDS011;2462;51.456;7.248;2023-07-08T00:05:41;2.10;;;1.87;;
2934;SDS011;2462;51.456;7.248;2023-07-08T00:08:11;3.07;;;2.40;;
2934;SDS011;2462;51.456;7.248;2023-07-08T00:10:38;3.00;;;2.40;;
2934;SDS011;2462;51.456;7.248;2023-07-08T00:13:04;1.90;;;1.73;;
2934;SDS011;2462;51.456;7.248;2023-07-08T00:15:31;2.60;;;2.30;;
2934;SDS011;2462;51.456;7.248;2023-07-08T00:18:00;2.70;;;2.47;;
2934;SDS011;2462;51.456;7.248;2023-07-08T00:20:31;2.97;;;2.30;;
2934;SDS011;2462;51.456;7.248;2023-07-08T00:22:57;1.90;;;1.70;;
2934;SDS011;2462;51.456;7.248;2023-07-08T00:25:26;3.53;;;2.23;;
2934;SDS011;2462;51.456;7.248;2023-07-08T00:27:52;2.50;;;2.03;;
2934;SDS011;2462;51.456;7.248;2023-07-08T00:32:46;2.47;;;2.03;;
2934;SDS011;2462;51.456;7.248;2023-07-08T00:35:12;2.10;;;1.90;;
2934;SDS011;2462;51.456;7.248;2023-07-08T00:37:38;2.83;;;2.53;;
2934;SDS011;2462;51.456;7.248;2023-07-08T00:40:16;2.00;;;1.80;;
2934;SDS011;2462;51.456;7.248;2023-07-08T00:42:43;5.00;;;2.60;;
2934;SDS011;2462;51.456;7.248;2023-07-08T00:45:18;2.90;;;2.40;;
2934;SDS011;2462;51.456;7.248;2023-07-08T00:48:07;3.23;;;2.10;;
2934;SDS011;2462;51.456;7.248;2023-07-08T00:50:47;2.67;;;2.47;;
2934;SDS011;2462;51.456;7.248;2023-07-08T00:55:47;3.83;;;2.40;;
2934;SDS011;2462;51.456;7.248;2023-07-08T00:58:13;3.20;;;2.50;;
2934;SDS011;2462;51.456;7.248;2023-07-08T01:00:41;2.43;;;2.23;;
2934;SDS011;2462;51.456;7.248;2023-07-08T01:03:07;3.87;;;2.73;;
2934;SDS011;2462;51.456;7.248;2023-07-08T01:05:33;2.83;;;2.00;;
2934;SDS011;2462;51.456;7.248;2023-07-08T01:08:01;2.03;;;1.80;;
2934;SDS011;2462;51.456;7.248;2023-07-08T01:10:34;2.50;;;2.30;;
2934;SDS011;2462;51.456;7.248;2023-07-08T01:13:06;3.80;;;2.90;;
2934;SDS011;2462;51.456;7.248;2023-07-08T01:15:39;3.80;;;2.23;;
2934;SDS011;2462;51.456;7.248;2023-07-08T01:18:08;2.37;;;2.03;;
2934;SDS011;2462;51.456;7.248;2023-07-08T01:20:34;2.20;;;2.00;;
2934;SDS011;2462;51.456;7.248;2023-07-08T01:23:00;2.50;;;2.20;;
2934;SDS011;2462;51.456;7.248;2023-07-08T01:25:26;5.13;;;2.30;;
2934;SDS011;2462;51.456;7.248;2023-07-08T01:27:53;2.10;;;1.87;;
2934;SDS011;2462;51.456;7.248;2023-07-08T01:30:21;2.40;;;2.10;;
2934;SDS011;2462;51.456;7.248;2023-07-08T01:32:48;2.13;;;1.90;;
2934;SDS011;2462;51.456;7.248;2023-07-08T01:35:16;2.67;;;2.30;;
2934;SDS011;2462;51.456;7.248;2023-07-08T01:37:44;1.70;;;1.60;;
2934;SDS011;2462;51.456;7.248;2023-07-08T01:40:28;3.03;;;2.07;;
2934;SDS011;2462;51.456;7.248;2023-07-08T01:42:54;4.67;;;2.10;;
2934;SDS011;2462;51.456;7.248;2023-07-08T01:45:22;3.43;;;2.20;;
2934;SDS011;2462;51.456;7.248;2023-07-08T01:47:53;4.97;;;2.20;;
2934;SDS011;2462;51.456;7.248;2023-07-08T01:50:22;3.03;;;2.33;;
2934;SDS011;2462;51.456;7.248;2023-07-08T01:52:50;2.37;;;2.03;;
2934;SDS011;2462;51.456;7.248;2023-07-08T01:55:20;3.40;;;2.47;;
2934;SDS011;2462;51.456;7.248;2023-07-08T01:57:47;2.07;;;1.73;;
2934;SDS011;2462;51.456;7.248;2023-07-08T02:00:13;2.40;;;1.87;;
2934;SDS011;2462;51.456;7.248;2023-07-08T02:02:39;2.23;;;2.03;;
2934;SDS011;2462;51.456;7.248;2023-07-08T02:05:04;2.83;;;2.40;;
2934;SDS011;2462;51.456;7.248;2023-07-08T02:07:30;2.40;;;2.20;;
2934;SDS011;2462;51.456;7.248;2023-07-08T02:09:55;2.00;;;1.80;;
2934;SDS011;2462;51.456;7.248;2023-07-08T02:12:21;3.33;;;2.10;;
2934;SDS011;2462;51.456;7.248;2023-07-08T02:14:46;2.53;;;2.07;;
2934;SDS011;2462;51.456;7.248;2023-07-08T02:17:12;4.73;;;2.40;;
2934;SDS011;2462;51.456;7.248;2023-07-08T02:19:39;2.30;;;2.10;;
2934;SDS011;2462;51.456;7.248;2023-07-08T02:22:05;2.23;;;1.90;;
2934;SDS011;2462;51.456;7.248;2023-07-08T02:24:30;2.53;;;1.80;;
2934;SDS011;2462;51.456;7.248;2023-07-08T02:26:56;2.40;;;2.20;;
2934;SDS011;2462;51.456;7.248;2023-07-08T02:29:22;2.60;;;2.40;;
2934;SDS011;2462;51.456;7.248;2023-07-08T02:31:47;2.40;;;2.00;;
2934;SDS011;2462;51.456;7.248;2023-07-08T02:34:13;2.20;;;2.00;;
2934;SDS011;2462;51.456;7.248;2023-07-08T02:36:39;2.40;;;2.20;;
2934;SDS011;2462;51.456;7.248;2023-07-08T02:39:04;2.80;;;2.50;;
2934;SDS011;2462;51.456;7.248;2023-07-08T02:41:30;2.47;;;2.27;;
2934;SDS011;2462;51.456;7.248;2023-07-08T02:43:56;2.40;;;2.20;;
2934;SDS011;2462;51.456;7.248;2023-07-08T02:46:21;2.37;;;1.90;;
2934;SDS011;2462;51.456;7.248;2023-07-08T02:48:47;4.67;;;2.63;;
2934;SDS011;2462;51.456;7.248;2023-07-08T02:51:12;7.73;;;3.43;;
2934;SDS011;2462;51.456;7.248;2023-07-08T02:53:38;2.63;;;2.43;;
2934;SDS011;2462;51.456;7.248;2023-07-08T02:56:03;2.60;;;2.40;;
2934;SDS011;2462;51.456;7.248;2023-07-08T02:58:29;2.60;;;2.03;;
2934;SDS011;2462;51.456;7.248;2023-07-08T03:00:55;2.30;;;2.10;;
2934;SDS011;2462;51.456;7.248;2023-07-08T03:03:25;2.97;;;2.10;;
2934;SDS011;2462;51.456;7.248;2023-07-08T03:05:57;2.43;;;2.23;;
2934;SDS011;2462;51.456;7.248;2023-07-08T03:08:26;2.50;;;2.27;;
2934;SDS011;2462;51.456;7.248;2023-07-08T03:10:56;2.73;;;2.50;;
2934;SDS011;2462;51.456;7.248;2023-07-08T03:13:26;2.43;;;2.23;;
2934;SDS011;2462;51.456;7.248;2023-07-08T03:15:52;4.37;;;2.50;;
2934;SDS011;2462;51.456;7.248;2023-07-08T03:18:19;2.40;;;2.20;;
2934;SDS011;2462;51.456;7.248;2023-07-08T03:20:47;2.50;;;2.30;;
2934;SDS011;2462;51.456;7.248;2023-07-08T03:23:13;2.67;;;2.27;;
2934;SDS011;2462;51.456;7.248;2023-07-08T03:25:39;2.47;;;2.23;;
2934;SDS011;2462;51.456;7.248;2023-07-08T03:28:07;3.93;;;2.50;;
2934;SDS011;2462;51.456;7.248;2023-07-08T03:30:38;2.00;;;1.80;;
2934;SDS011;2462;51.456;7.248;2023-07-08T03:33:04;2.10;;;1.90;;
2934;SDS011;2462;51.456;7.248;2023-07-08T03:35:30;2.70;;;2.37;;
2934;SDS011;2462;51.456;7.248;2023-07-08T03:37:56;2.90;;;2.50;;
2934;SDS011;2462;51.456;7.248;2023-07-08T03:40:21;2.80;;;2.40;;
2934;SDS011;2462;51.456;7.248;2023-07-08T03:42:47;2.60;;;2.40;;
2934;SDS011;2462;51.456;7.248;2023-07-08T03:45:12;2.37;;;2.07;;
2934;SDS011;2462;51.456;7.248;2023-07-08T03:47:38;2.60;;;2.40;;
2934;SDS011;2462;51.456;7.248;2023-07-08T03:50:04;2.13;;;2.00;;
2934;SDS011;2462;51.456;7.248;2023-07-08T03:52:30;6.20;;;2.17;;
2934;SDS011;2462;51.456;7.248;2023-07-08T03:54:56;2.73;;;2.37;;
2934;SDS011;2462;51.456;7.248;2023-07-08T03:57:22;2.23;;;1.97;;
2934;SDS011;2462;51.456;7.248;2023-07-08T03:59:47;2.27;;;2.07;;
2934;SDS011;2462;51.456;7.248;2023-07-08T04:02:13;2.30;;;2.10;;
2934;SDS011;2462;51.456;7.248;2023-07-08T04:04:38;1.97;;;1.73;;
2934;SDS011;2462;51.456;7.248;2023-07-08T04:07:04;3.40;;;2.50;;
2934;SDS011;2462;51.456;7.248;2023-07-08T04:09:30;4.40;;;2.30;;
2934;SDS011;2462;51.456;7.248;2023-07-08T04:11:56;2.20;;;2.00;;
2934;SDS011;2462;51.456;7.248;2023-07-08T04:14:22;2.40;;;2.20;;
2934;SDS011;2462;51.456;7.248;2023-07-08T04:16:50;2.43;;;2.20;;
2934;SDS011;2462;51.456;7.248;2023-07-08T04:19:22;2.43;;;2.23;;
2934;SDS011;2462;51.456;7.248;2023-07-08T04:21:48;2.57;;;2.37;;
2934;SDS011;2462;51.456;7.248;2023-07-08T04:24:14;1.80;;;1.70;;
2934;SDS011;2462;51.456;7.248;2023-07-08T04:26:41;2.33;;;2.13;;
2934;SDS011;2462;51.456;7.248;2023-07-08T04:29:14;2.63;;;2.40;;
2934;SDS011;2462;51.456;7.248;2023-07-08T04:31:41;2.60;;;2.20;;
2934;SDS011;2462;51.456;7.248;2023-07-08T04:34:07;2.27;;;2.07;;
2934;SDS011;2462;51.456;7.248;2023-07-08T04:36:34;2.23;;;2.03;;
2934;SDS011;2462;51.456;7.248;2023-07-08T04:39:00;2.77;;;2.43;;
2934;SDS011;2462;51.456;7.248;2023-07-08T04:41:27;1.97;;;1.87;;
2934;SDS011;2462;51.456;7.248;2023-07-08T04:43:53;1.97;;;1.70;;
2934;SDS011;2462;51.456;7.248;2023-07-08T04:46:20;1.87;;;1.77;;
2934;SDS011;2462;51.456;7.248;2023-07-08T04:49:02;3.20;;;2.03;;
2934;SDS011;2462;51.456;7.248;2023-07-08T04:51:29;3.50;;;1.90;;
2934;SDS011;2462;51.456;7.248;2023-07-08T04:53:54;2.33;;;2.13;;
2934;SDS011;2462;51.456;7.248;2023-07-08T04:56:20;3.07;;;2.73;;
2934;SDS011;2462;51.456;7.248;2023-07-08T04:58:47;3.83;;;3.50;;
2934;SDS011;2462;51.456;7.248;2023-07-08T05:01:12;3.80;;;3.30;;
2934;SDS011;2462;51.456;7.248;2023-07-08T05:03:38;4.27;;;3.80;;
2934;SDS011;2462;51.456;7.248;2023-07-08T05:06:03;7.00;;;3.57;;
2934;SDS011;2462;51.456;7.248;2023-07-08T05:08:29;8.30;;;3.87;;
2934;SDS011;2462;51.456;7.248;2023-07-08T05:10:55;4.33;;;3.57;;
2934;SDS011;2462;51.456;7.248;2023-07-08T05:13:21;4.60;;;4.20;;
2934;SDS011;2462;51.456;7.248;2023-07-08T05:15:47;5.90;;;3.30;;
2934;SDS011;2462;51.456;7.248;2023-07-08T05:18:13;6.60;;;4.10;;
2934;SDS011;2462;51.456;7.248;2023-07-08T05:20:39;4.30;;;3.63;;
2934;SDS011;2462;51.456;7.248;2023-07-08T05:23:05;7.47;;;3.80;;
2934;SDS011;2462;51.456;7.248;2023-07-08T05:25:31;4.13;;;3.60;;
2934;SDS011;2462;51.456;7.248;2023-07-08T05:27:57;4.50;;;3.60;;
2934;SDS011;2462;51.456;7.248;2023-07-08T05:30:23;4.80;;;3.90;;
2934;SDS011;2462;51.456;7.248;2023-07-08T05:32:49;4.40;;;4.00;;
2934;SDS011;2462;51.456;7.248;2023-07-08T05:35:14;4.60;;;3.87;;
2934;SDS011;2462;51.456;7.248;2023-07-08T05:37:40;6.37;;;4.13;;
2934;SDS011;2462;51.456;7.248;2023-07-08T05:40:06;6.23;;;3.50;;
2934;SDS011;2462;51.456;7.248;2023-07-08T05:42:33;10.73;;;4.10;;
2934;SDS011;2462;51.456;7.248;2023-07-08T05:44:58;4.63;;;3.77;;
2934;SDS011;2462;51.456;7.248;2023-07-08T05:47:24;5.97;;;3.53;;
2934;SDS011;2462;51.456;7.248;2023-07-08T05:49:50;4.00;;;3.60;;
2934;SDS011;2462;51.456;7.248;2023-07-08T05:52:15;5.30;;;4.13;;
2934;SDS011;2462;51.456;7.248;2023-07-08T05:54:41;4.20;;;3.50;;
2934;SDS011;2462;51.456;7.248;2023-07-08T05:57:08;3.80;;;3.50;;
2934;SDS011;2462;51.456;7.248;2023-07-08T05:59:35;9.87;;;3.70;;
2934;SDS011;2462;51.456;7.248;2023-07-08T06:02:03;4.50;;;3.33;;
2934;SDS011;2462;51.456;7.248;2023-07-08T06:04:29;5.00;;;3.97;;
2934;SDS011;2462;51.456;7.248;2023-07-08T06:06:55;3.80;;;3.17;;
2934;SDS011;2462;51.456;7.248;2023-07-08T06:09:21;5.00;;;4.03;;
2934;SDS011;2462;51.456;7.248;2023-07-08T06:11:47;7.93;;;4.10;;
2934;SDS011;2462;51.456;7.248;2023-07-08T06:14:12;3.90;;;3.60;;
2934;SDS011;2462;51.456;7.248;2023-07-08T06:16:38;4.53;;;4.13;;
2934;SDS011;2462;51.456;7.248;2023-07-08T06:19:03;3.60;;;3.30;;
2934;SDS011;2462;51.456;7.248;2023-07-08T06:21:29;7.27;;;3.57;;
2934;SDS011;2462;51.456;7.248;2023-07-08T06:23:54;5.90;;;3.97;;
2934;SDS011;2462;51.456;7.248;2023-07-08T06:26:20;7.10;;;3.50;;
2934;SDS011;2462;51.456;7.248;2023-07-08T06:28:46;5.97;;;4.20;;
2934;SDS011;2462;51.456;7.248;2023-07-08T06:31:11;5.33;;;3.87;;
2934;SDS011;2462;51.456;7.248;2023-07-08T06:33:37;8.03;;;3.47;;
2934;SDS011;2462;51.456;7.248;2023-07-08T06:36:02;5.30;;;3.10;;
2934;SDS011;2462;51.456;7.248;2023-07-08T06:38:28;5.33;;;3.90;;
2934;SDS011;2462;51.456;7.248;2023-07-08T06:40:53;4.17;;;3.77;;
2934;SDS011;2462;51.456;7.248;2023-07-08T06:43:19;5.27;;;3.50;;
2934;SDS011;2462;51.456;7.248;2023-07-08T06:45:44;5.50;;;3.50;;
2934;SDS011;2462;51.456;7.248;2023-07-08T06:48:10;5.67;;;3.90;;
2934;SDS011;2462;51.456;7.248;2023-07-08T06:50:37;4.47;;;4.07;;
2934;SDS011;2462;51.456;7.248;2023-07-08T06:53:03;5.77;;;3.73;;
2934;SDS011;2462;51.456;7.248;2023-07-08T06:55:28;3.80;;;3.50;;
2934;SDS011;2462;51.456;7.248;2023-07-08T06:57:55;4.77;;;3.37;;
2934;SDS011;2462;51.456;7.248;2023-07-08T07:00:20;4.00;;;3.13;;
2934;SDS011;2462;51.456;7.248;2023-07-08T07:02:46;6.82;;;4.03;;
2934;SDS011;2462;51.456;7.248;2023-07-08T07:05:12;4.90;;;3.40;;
2934;SDS011;2462;51.456;7.248;2023-07-08T07:07:37;8.43;;;3.43;;
2934;SDS011;2462;51.456;7.248;2023-07-08T07:10:03;4.73;;;3.80;;
2934;SDS011;2462;51.456;7.248;2023-07-08T07:12:29;6.00;;;3.37;;
2934;SDS011;2462;51.456;7.248;2023-07-08T07:14:54;4.93;;;4.07;;
2934;SDS011;2462;51.456;7.248;2023-07-08T07:17:21;7.23;;;3.60;;
2934;SDS011;2462;51.456;7.248;2023-07-08T07:19:48;3.77;;;3.13;;
2934;SDS011;2462;51.456;7.248;2023-07-08T07:22:13;4.00;;;3.30;;
2934;SDS011;2462;51.456;7.248;2023-07-08T07:24:39;6.80;;;3.73;;
2934;SDS011;2462;51.456;7.248;2023-07-08T07:27:05;8.20;;;3.93;;
2934;SDS011;2462;51.456;7.248;2023-07-08T07:29:41;4.60;;;3.80;;
2934;SDS011;2462;51.456;7.248;2023-07-08T07:32:08;6.87;;;3.70;;
2934;SDS011;2462;51.456;7.248;2023-07-08T07:34:35;7.50;;;4.37;;
2934;SDS011;2462;51.456;7.248;2023-07-08T07:37:01;4.53;;;4.00;;
2934;SDS011;2462;51.456;7.248;2023-07-08T07:39:26;4.57;;;3.23;;
2934;SDS011;2462;51.456;7.248;2023-07-08T07:41:53;5.63;;;4.17;;
2934;SDS011;2462;51.456;7.248;2023-07-08T07:44:19;5.20;;;4.10;;
2934;SDS011;2462;51.456;7.248;2023-07-08T07:46:44;6.73;;;4.20;;
2934;SDS011;2462;51.456;7.248;2023-07-08T07:49:11;5.23;;;4.10;;
2934;SDS011;2462;51.456;7.248;2023-07-08T07:51:36;6.77;;;4.23;;
2934;SDS011;2462;51.456;7.248;2023-07-08T07:54:02;4.27;;;3.40;;
2934;SDS011;2462;51.456;7.248;2023-07-08T07:56:28;4.63;;;3.90;;
2934;SDS011;2462;51.456;7.248;2023-07-08T07:58:53;6.80;;;4.20;;
2934;SDS011;2462;51.456;7.248;2023-07-08T08:01:19;4.87;;;4.47;;
2934;SDS011;2462;51.456;7.248;2023-07-08T08:03:44;5.57;;;3.93;;
2934;SDS011;2462;51.456;7.248;2023-07-08T08:06:10;8.57;;;4.80;;
2934;SDS011;2462;51.456;7.248;2023-07-08T08:08:36;5.83;;;4.00;;
2934;SDS011;2462;51.456;7.248;2023-07-08T08:11:02;6.83;;;4.60;;
2934;SDS011;2462;51.456;7.248;2023-07-08T08:13:27;7.25;;;4.40;;
2934;SDS011;2462;51.456;7.248;2023-07-08T08:15:59;5.87;;;4.27;;
2934;SDS011;2462;51.456;7.248;2023-07-08T08:18:25;6.60;;;4.10;;
2934;SDS011;2462;51.456;7.248;2023-07-08T08:20:50;5.60;;;4.13;;
2934;SDS011;2462;51.456;7.248;2023-07-08T08:23:16;5.63;;;4.10;;
2934;SDS011;2462;51.456;7.248;2023-07-08T08:25:42;5.27;;;4.50;;
2934;SDS011;2462;51.456;7.248;2023-07-08T08:28:07;6.30;;;4.40;;
2934;SDS011;2462;51.456;7.248;2023-07-08T08:30:33;6.40;;;5.30;;
2934;SDS011;2462;51.456;7.248;2023-07-08T08:32:59;4.37;;;3.80;;
2934;SDS011;2462;51.456;7.248;2023-07-08T08:35:26;7.93;;;6.33;;
2934;SDS011;2462;51.456;7.248;2023-07-08T08:37:51;9.33;;;4.93;;
2934;SDS011;2462;51.456;7.248;2023-07-08T08:40:18;8.30;;;5.10;;
2934;SDS011;2462;51.456;7.248;2023-07-08T08:42:46;7.23;;;4.30;;
2934;SDS011;2462;51.456;7.248;2023-07-08T08:45:18;17.65;;;5.60;;
2934;SDS011;2462;51.456;7.248;2023-07-08T08:47:47;6.73;;;4.80;;
2934;SDS011;2462;51.456;7.248;2023-07-08T08:50:20;6.77;;;6.07;;
2934;SDS011;2462;51.456;7.248;2023-07-08T08:52:58;6.50;;;5.30;;
2934;SDS011;2462;51.456;7.248;2023-07-08T08:55:26;7.23;;;5.10;;
2934;SDS011;2462;51.456;7.248;2023-07-08T08:57:54;5.97;;;4.77;;
2934;SDS011;2462;51.456;7.248;2023-07-08T09:00:37;5.77;;;4.70;;
2934;SDS011;2462;51.456;7.248;2023-07-08T09:03:14;8.20;;;5.40;;
2934;SDS011;2462;51.456;7.248;2023-07-08T09:05:42;6.83;;;5.97;;
2934;SDS011;2462;51.456;7.248;2023-07-08T09:10:42;5.73;;;5.10;;
2934;SDS011;2462;51.456;7.248;2023-07-08T09:13:43;6.83;;;5.97;;
2934;SDS011;2462;51.456;7.248;2023-07-08T09:18:36;12.63;;;6.10;;
2934;SDS011;2462;51.456;7.248;2023-07-08T09:21:06;6.20;;;5.28;;
2934;SDS011;2462;51.456;7.248;2023-07-08T09:23:39;5.80;;;4.20;;
2934;SDS011;2462;51.456;7.248;2023-07-08T09:26:08;8.70;;;4.77;;
2934;SDS011;2462;51.456;7.248;2023-07-08T09:28:38;7.90;;;4.43;;
2934;SDS011;2462;51.456;7.248;2023-07-08T09:31:06;6.45;;;4.93;;
2934;SDS011;2462;51.456;7.248;2023-07-08T09:36:18;5.80;;;4.77;;
2934;SDS011;2462;51.456;7.248;2023-07-08T09:38:47;6.43;;;5.30;;
2934;SDS011;2462;51.456;7.248;2023-07-08T09:41:14;6.67;;;4.80;;
2934;SDS011;2462;51.456;7.248;2023-07-08T09:43:43;7.43;;;4.73;;
2934;SDS011;2462;51.456;7.248;2023-07-08T09:46:11;5.70;;;4.80;;
2934;SDS011;2462;51.456;7.248;2023-07-08T09:48:37;8.90;;;4.93;;
2934;SDS011;2462;51.456;7.248;2023-07-08T09:51:03;4.77;;;4.37;;
2934;SDS011;2462;51.456;7.248;2023-07-08T09:53:30;5.80;;;4.67;;
2934;SDS011;2462;51.456;7.248;2023-07-08T09:55:56;8.85;;;5.07;;
2934;SDS011;2462;51.456;7.248;2023-07-08T09:58:24;5.60;;;4.13;;
2934;SDS011;2462;51.456;7.248;2023-07-08T10:00:53;6.50;;;4.40;;
2934;SDS011;2462;51.456;7.248;2023-07-08T10:03:23;4.43;;;4.03;;
2934;SDS011;2462;51.456;7.248;2023-07-08T10:05:51;4.13;;;3.80;;
2934;SDS011;2462;51.456;7.248;2023-07-08T10:08:22;4.43;;;4.03;;
2934;SDS011;2462;51.456;7.248;2023-07-08T10:10:57;3.67;;;3.33;;
2934;SDS011;2462;51.456;7.248;2023-07-08T10:13:40;4.47;;;3.70;;
2934;SDS011;2462;51.456;7.248;2023-07-08T10:16:12;5.57;;;3.53;;
2934;SDS011;2462;51.456;7.248;2023-07-08T10:18:39;6.43;;;4.07;;
2934;SDS011;2462;51.456;7.248;2023-07-08T10:23:46;4.67;;;4.17;;
2934;SDS011;2462;51.456;7.248;2023-07-08T10:28:51;7.30;;;4.77;;
2934;SDS011;2462;51.456;7.248;2023-07-08T10:31:25;7.17;;;4.50;;
2934;SDS011;2462;51.456;7.248;2023-07-08T10:44:19;5.00;;;3.70;;
2934;SDS011;2462;51.456;7.248;2023-07-08T11:02:19;5.30;;;4.30;;
2934;SDS011;2462;51.456;7.248;2023-07-08T11:09:53;5.00;;;3.60;;
2934;SDS011;2462;51.456;7.248;2023-07-08T11:14:51;5.93;;;3.00;;
2934;SDS011;2462;51.456;7.248;2023-07-08T11:17:29;7.30;;;3.90;;
2934;SDS011;2462;51.456;7.248;2023-07-08T11:20:01;4.07;;;2.93;;
2934;SDS011;2462;51.456;7.248;2023-07-08T11:22:28;4.97;;;3.17;;
2934;SDS011;2462;51.456;7.248;2023-07-08T11:24:55;3.60;;;3.10;;
2934;SDS011;2462;51.456;7.248;2023-07-08T11:27:27;5.30;;;3.50;;
2934;SDS011;2462;51.456;7.248;2023-07-08T11:29:55;7.33;;;4.10;;
2934;SDS011;2462;51.456;7.248;2023-07-08T11:32:23;4.17;;;3.67;;
2934;SDS011;2462;51.456;7.248;2023-07-08T11:34:51;4.73;;;3.73;;
2934;SDS011;2462;51.456;7.248;2023-07-08T11:37:18;4.30;;;3.60;;
2934;SDS011;2462;51.456;7.248;2023-07-08T11:39:47;4.57;;;3.07;;
2934;SDS011;2462;51.456;7.248;2023-07-08T11:42:19;4.17;;;3.10;;
2934;SDS011;2462;51.456;7.248;2023-07-08T11:44:47;3.80;;;3.20;;
2934;SDS011;2462;51.456;7.248;2023-07-08T11:47:18;3.90;;;3.07;;
2934;SDS011;2462;51.456;7.248;2023-07-08T11:49:46;3.73;;;3.43;;
2934;SDS011;2462;51.456;7.248;2023-07-08T11:52:13;3.50;;;2.90;;
2934;SDS011;2462;51.456;7.248;2023-07-08T11:54:45;5.83;;;3.80;;
2934;SDS011;2462;51.456;7.248;2023-07-08T11:57:16;4.13;;;3.40;;
2934;SDS011;2462;51.456;7.248;2023-07-08T11:59:42;4.13;;;3.23;;
2934;SDS011;2462;51.456;7.248;2023-07-08T12:02:12;6.17;;;4.27;;
2934;SDS011;2462;51.456;7.248;2023-07-08T12:04:55;6.97;;;3.97;;
2934;SDS011;2462;51.456;7.248;2023-07-08T12:07:31;5.80;;;3.77;;
2934;SDS011;2462;51.456;7.248;2023-07-08T12:09:59;5.47;;;4.70;;
2934;SDS011;2462;51.456;7.248;2023-07-08T12:12:30;8.10;;;4.73;;
2934;SDS011;2462;51.456;7.248;2023-07-08T12:15:04;5.00;;;4.33;;
2934;SDS011;2462;51.456;7.248;2023-07-08T12:17:30;5.87;;;3.70;;
2934;SDS011;2462;51.456;7.248;2023-07-08T12:19:57;3.80;;;3.40;;
2934;SDS011;2462;51.456;7.248;2023-07-08T12:22:23;4.97;;;3.70;;
2934;SDS011;2462;51.456;7.248;2023-07-08T12:24:49;5.20;;;3.90;;
2934;SDS011;2462;51.456;7.248;2023-07-08T12:27:15;7.47;;;3.80;;
2934;SDS011;2462;51.456;7.248;2023-07-08T12:29:41;6.07;;;4.00;;
2934;SDS011;2462;51.456;7.248;2023-07-08T12:32:09;3.90;;;3.50;;
2934;SDS011;2462;51.456;7.248;2023-07-08T12:34:37;4.87;;;3.77;;
2934;SDS011;2462;51.456;7.248;2023-07-08T12:37:03;4.53;;;3.47;;
2934;SDS011;2462;51.456;7.248;2023-07-08T12:39:29;4.33;;;3.43;;
2934;SDS011;2462;51.456;7.248;2023-07-08T12:41:59;4.80;;;3.40;;
2934;SDS011;2462;51.456;7.248;2023-07-08T12:44:25;6.67;;;3.67;;
2934;SDS011;2462;51.456;7.248;2023-07-08T12:46:54;4.67;;;3.50;;
2934;SDS011;2462;51.456;7.248;2023-07-08T12:49:21;4.10;;;3.40;;
2934;SDS011;2462;51.456;7.248;2023-07-08T12:51:51;4.80;;;3.93;;
2934;SDS011;2462;51.456;7.248;2023-07-08T12:54:17;5.73;;;3.33;;
2934;SDS011;2462;51.456;7.248;2023-07-08T12:56:44;3.33;;;3.03;;
2934;SDS011;2462;51.456;7.248;2023-07-08T12:59:12;5.10;;;3.33;;
2934;SDS011;2462;51.456;7.248;2023-07-08T13:01:39;4.93;;;3.97;;
2934;SDS011;2462;51.456;7.248;2023-07-08T13:04:06;5.57;;;3.07;;
2934;SDS011;2462;51.456;7.248;2023-07-08T13:06:35;3.97;;;3.40;;
2934;SDS011;2462;51.456;7.248;2023-07-08T13:09:14;4.23;;;3.83;;
2934;SDS011;2462;51.456;7.248;2023-07-08T13:11:45;5.40;;;3.80;;
2934;SDS011;2462;51.456;7.248;2023-07-08T13:14:12;8.43;;;3.80;;
2934;SDS011;2462;51.456;7.248;2023-07-08T13:16:38;6.50;;;3.43;;
2934;SDS011;2462;51.456;7.248;2023-07-08T13:19:04;4.73;;;3.80;;
2934;SDS011;2462;51.456;7.248;2023-07-08T13:21:31;5.37;;;3.87;;
2934;SDS011;2462;51.456;7.248;2023-07-08T13:23:57;4.00;;;3.60;;
2934;SDS011;2462;51.456;7.248;2023-07-08T13:26:27;7.43;;;3.57;;
2934;SDS011;2462;51.456;7.248;2023-07-08T13:29:01;5.43;;;3.73;;
2934;SDS011;2462;51.456;7.248;2023-07-08T13:31:31;4.63;;;3.77;;
2934;SDS011;2462;51.456;7.248;2023-07-08T13:34:02;8.13;;;3.27;;
2934;SDS011;2462;51.456;7.248;2023-07-08T13:36:32;8.00;;;6.13;;
2934;SDS011;2462;51.456;7.248;2023-07-08T13:39:00;4.80;;;2.90;;
2934;SDS011;2462;51.456;7.248;2023-07-08T13:41:28;4.03;;;3.40;;
2934;SDS011;2462;51.456;7.248;2023-07-08T13:43:54;4.73;;;3.57;;
2934;SDS011;2462;51.456;7.248;2023-07-08T13:48:55;5.33;;;3.30;;
2934;SDS011;2462;51.456;7.248;2023-07-08T13:51:22;4.90;;;3.57;;
2934;SDS011;2462;51.456;7.248;2023-07-08T13:53:53;6.97;;;3.73;;
2934;SDS011;2462;51.456;7.248;2023-07-08T13:58:46;7.93;;;3.43;;
2934;SDS011;2462;51.456;7.248;2023-07-08T14:01:20;7.63;;;3.70;;
2934;SDS011;2462;51.456;7.248;2023-07-08T14:03:47;5.30;;;3.20;;
2934;SDS011;2462;51.456;7.248;2023-07-08T14:06:17;6.73;;;4.37;;
2934;SDS011;2462;51.456;7.248;2023-07-08T14:08:43;6.43;;;3.73;;
2934;SDS011;2462;51.456;7.248;2023-07-08T14:11:09;4.57;;;3.60;;
2934;SDS011;2462;51.456;7.248;2023-07-08T14:13:35;6.90;;;3.47;;
2934;SDS011;2462;51.456;7.248;2023-07-08T14:16:02;7.47;;;2.77;;
2934;SDS011;2462;51.456;7.248;2023-07-08T14:18:30;3.73;;;3.37;;
2934;SDS011;2462;51.456;7.248;2023-07-08T14:20:56;3.63;;;3.20;;
2934;SDS011;2462;51.456;7.248;2023-07-08T14:23:23;3.70;;;3.20;;
2934;SDS011;2462;51.456;7.248;2023-07-08T14:25:49;6.40;;;3.50;;
2934;SDS011;2462;51.456;7.248;2023-07-08T14:28:15;3.67;;;3.20;;
2934;SDS011;2462;51.456;7.248;2023-07-08T14:30:43;3.70;;;3.20;;
2934;SDS011;2462;51.456;7.248;2023-07-08T14:33:10;6.10;;;4.20;;
2934;SDS011;2462;51.456;7.248;2023-07-08T14:35:36;6.33;;;3.27;;
2934;SDS011;2462;51.456;7.248;2023-07-08T14:38:03;3.60;;;3.00;;
2934;SDS011;2462;51.456;7.248;2023-07-08T14:40:34;6.00;;;3.50;;
2934;SDS011;2462;51.456;7.248;2023-07-08T14:43:05;3.67;;;3.33;;
2934;SDS011;2462;51.456;7.248;2023-07-08T14:45:33;5.50;;;3.80;;
2934;SDS011;2462;51.456;7.248;2023-07-08T14:48:06;5.50;;;3.30;;
2934;SDS011;2462;51.456;7.248;2023-07-08T14:50:33;5.47;;;3.85;;
2934;SDS011;2462;51.456;7.248;2023-07-08T14:52:59;4.20;;;3.70;;
2934;SDS011;2462;51.456;7.248;2023-07-08T14:55:25;4.00;;;3.17;;
2934;SDS011;2462;51.456;7.248;2023-07-08T14:57:51;11.27;;;10.17;;
2934;SDS011;2462;51.456;7.248;2023-07-08T15:00:18;5.03;;;4.00;;
2934;SDS011;2462;51.456;7.248;2023-07-08T15:02:45;4.40;;;3.83;;
2934;SDS011;2462;51.456;7.248;2023-07-08T15:07:41;4.83;;;4.10;;
2934;SDS011;2462;51.456;7.248;2023-07-08T15:10:07;4.40;;;3.40;;
2934;SDS011;2462;51.456;7.248;2023-07-08T15:12:33;4.80;;;3.60;;
2934;SDS011;2462;51.456;7.248;2023-07-08T15:14:59;4.87;;;2.87;;
2934;SDS011;2462;51.456;7.248;2023-07-08T15:17:25;6.30;;;3.20;;
2934;SDS011;2462;51.456;7.248;2023-07-08T15:19:51;3.73;;;3.00;;
2934;SDS011;2462;51.456;7.248;2023-07-08T15:22:17;4.97;;;3.67;;
2934;SDS011;2462;51.456;7.248;2023-07-08T15:24:43;3.60;;;3.30;;
2934;SDS011;2462;51.456;7.248;2023-07-08T15:27:11;3.67;;;3.10;;
2934;SDS011;2462;51.456;7.248;2023-07-08T15:29:38;3.60;;;3.17;;
2934;SDS011;2462;51.456;7.248;2023-07-08T15:32:04;4.80;;;3.20;;
2934;SDS011;2462;51.456;7.248;2023-07-08T15:34:35;5.03;;;3.20;;
2934;SDS011;2462;51.456;7.248;2023-07-08T15:37:01;6.43;;;3.70;;
2934;SDS011;2462;51.456;7.248;2023-07-08T15:39:27;4.63;;;2.93;;
2934;SDS011;2462;51.456;7.248;2023-07-08T15:41:53;6.33;;;3.47;;
2934;SDS011;2462;51.456;7.248;2023-07-08T15:44:19;5.13;;;3.70;;
2934;SDS011;2462;51.456;7.248;2023-07-08T15:46:46;5.53;;;4.27;;
2934;SDS011;2462;51.456;7.248;2023-07-08T15:49:14;6.13;;;3.83;;
2934;SDS011;2462;51.456;7.248;2023-07-08T15:51:40;6.50;;;4.33;;
2934;SDS011;2462;51.456;7.248;2023-07-08T15:54:06;5.87;;;4.30;;
2934;SDS011;2462;51.456;7.248;2023-07-08T15:56:32;6.63;;;3.90;;
2934;SDS011;2462;51.456;7.248;2023-07-08T15:58:59;4.20;;;3.43;;
2934;SDS011;2462;51.456;7.248;2023-07-08T16:01:25;5.53;;;3.53;;
2934;SDS011;2462;51.456;7.248;2023-07-08T16:03:51;4.50;;;3.53;;
2934;SDS011;2462;51.456;7.248;2023-07-08T16:06:18;3.60;;;3.13;;
2934;SDS011;2462;51.456;7.248;2023-07-08T16:08:44;3.77;;;3.23;;
2934;SDS011;2462;51.456;7.248;2023-07-08T16:11:12;5.10;;;3.30;;
2934;SDS011;2462;51.456;7.248;2023-07-08T16:13:39;4.33;;;3.93;;
2934;SDS011;2462;51.456;7.248;2023-07-08T16:16:06;4.77;;;3.13;;